Time,TemperatureF,DewpointF,PressureIn,WindDirection,WindDirectionDegrees,WindSpeedMPH,WindSpeedGustMPH,Humidity,HourlyPrecipIn,Conditions,Clouds,dailyrainin,SolarRadiationWatts/m^2,SoftwareType,DateUTC
2013-01-02 00:03:00,45.0,45.0,-100.00,WNW,299,2.0,6.0,99,0.02,,,0.80,0.000000,,2013-01-02 05:03:00,
2013-01-02 00:33:00,45.0,44.0,-100.00,NE,41,1.0,4.0,98,0.04,,,0.84,0.000000,,2013-01-02 05:33:00,
2013-01-02 00:43:00,45.0,44.0,-100.00,NE,41,1.0,4.0,98,0.04,,,0.84,0.000000,,2013-01-02 05:43:00,
2013-01-02 00:53:00,45.0,44.0,-100.00,NE,41,1.0,4.0,98,0.04,,,0.84,0.000000,,2013-01-02 05:53:00,
2013-01-02 01:02:00,45.0,44.0,-100.00,NE,41,1.0,4.0,98,0.04,,,0.84,0.000000,,2013-01-02 06:02:00,
2013-01-02 01:33:00,45.0,45.0,-100.00,West,279,4.0,9.0,99,0.00,,,0.84,0.000000,,2013-01-02 06:33:00,
2013-01-02 01:42:00,45.0,45.0,-100.00,West,279,4.0,9.0,99,0.00,,,0.84,0.000000,,2013-01-02 06:42:00,
2013-01-02 01:53:00,45.0,45.0,-100.00,West,279,4.0,9.0,99,0.00,,,0.84,0.000000,,2013-01-02 06:53:00,
2013-01-02 02:02:00,45.0,45.0,-100.00,West,279,4.0,9.0,99,0.00,,,0.84,0.000000,,2013-01-02 07:02:00,
2013-01-02 02:32:00,42.0,40.0,-100.00,NW,314,6.0,14.0,94,0.00,,,0.84,0.000000,,2013-01-02 07:32:00,
2013-01-02 02:42:00,42.0,40.0,-100.00,NW,314,6.0,14.0,94,0.00,,,0.84,0.000000,,2013-01-02 07:42:00,
2013-01-02 02:52:00,42.0,40.0,-100.00,NW,314,6.0,14.0,94,0.00,,,0.84,0.000000,,2013-01-02 07:52:00,
2013-01-02 03:02:00,42.0,40.0,-100.00,NW,314,6.0,14.0,94,0.00,,,0.84,0.000000,,2013-01-02 08:02:00,
2013-01-02 03:32:00,40.0,38.0,-100.00,WNW,292,5.0,15.0,93,0.01,,,0.85,0.000000,,2013-01-02 08:32:00,
2013-01-02 03:42:00,40.0,38.0,-100.00,WNW,292,5.0,15.0,93,0.01,,,0.85,0.000000,,2013-01-02 08:42:00,
2013-01-02 03:53:00,40.0,38.0,-100.00,WNW,292,5.0,15.0,93,0.01,,,0.85,0.000000,,2013-01-02 08:53:00,
2013-01-02 04:02:00,40.0,38.0,-100.00,WNW,292,5.0,15.0,93,0.01,,,0.85,0.000000,,2013-01-02 09:02:00,
2013-01-02 04:32:00,40.0,38.0,-100.00,West,274,5.0,12.0,92,0.00,,,0.85,0.000000,,2013-01-02 09:32:00,
2013-01-02 04:43:00,40.0,38.0,-100.00,West,274,5.0,12.0,92,0.00,,,0.85,0.000000,,2013-01-02 09:43:00,
2013-01-02 04:53:00,40.0,38.0,-100.00,West,274,5.0,12.0,92,0.00,,,0.85,0.000000,,2013-01-02 09:53:00,
2013-01-02 05:02:00,40.0,38.0,-100.00,West,274,5.0,12.0,92,0.00,,,0.85,0.000000,,2013-01-02 10:02:00,
2013-01-02 05:32:00,39.0,38.0,-100.00,ESE,116,2.0,4.0,97,0.00,,,0.84,0.000000,,2013-01-02 10:32:00,
2013-01-02 05:43:00,39.0,38.0,-100.00,ESE,116,2.0,4.0,97,0.00,,,0.84,0.000000,,2013-01-02 10:43:00,
2013-01-02 05:53:00,39.0,38.0,-100.00,ESE,116,2.0,4.0,97,0.00,,,0.84,0.000000,,2013-01-02 10:53:00,
2013-01-02 06:02:00,39.0,38.0,-100.00,ESE,116,2.0,4.0,97,0.00,,,0.84,0.000000,,2013-01-02 11:02:00,
2013-01-02 06:33:00,39.0,38.0,-100.00,NNW,335,4.0,10.0,97,0.00,,,0.83,0.000000,,2013-01-02 11:33:00,
2013-01-02 06:43:00,39.0,38.0,-100.00,NNW,335,4.0,10.0,97,0.00,,,0.83,0.000000,,2013-01-02 11:43:00,
2013-01-02 06:53:00,39.0,38.0,-100.00,NNW,335,4.0,10.0,97,0.00,,,0.83,0.000000,,2013-01-02 11:53:00,
2013-01-02 07:03:00,39.0,38.0,-100.00,NNW,335,4.0,10.0,97,0.00,,,0.83,0.000000,,2013-01-02 12:03:00,
2013-01-02 07:33:00,36.0,35.0,-100.00,NW,320,5.0,11.0,97,0.00,,,0.76,0.000000,,2013-01-02 12:33:00,
2013-01-02 07:43:00,36.0,35.0,-100.00,NW,320,5.0,11.0,97,0.00,,,0.76,0.000000,,2013-01-02 12:43:00,
2013-01-02 07:53:00,36.0,35.0,-100.00,NW,320,5.0,11.0,97,0.00,,,0.76,0.000000,,2013-01-02 12:53:00,
2013-01-02 08:03:00,36.0,35.0,-100.00,NW,320,5.0,11.0,97,0.00,,,0.76,0.000000,,2013-01-02 13:03:00,
2013-01-02 08:33:00,35.0,34.0,-100.00,North,349,3.0,10.0,97,0.00,,,0.67,1.000000,,2013-01-02 13:33:00,
2013-01-02 08:43:00,35.0,34.0,-100.00,North,349,3.0,10.0,97,0.00,,,0.67,1.000000,,2013-01-02 13:43:00,
2013-01-02 08:53:00,35.0,34.0,-100.00,North,349,3.0,10.0,97,0.00,,,0.67,1.000000,,2013-01-02 13:53:00,
2013-01-02 09:02:00,35.0,34.0,-100.00,North,349,3.0,10.0,97,0.00,,,0.67,1.000000,,2013-01-02 14:02:00,
2013-01-02 09:33:00,36.0,35.0,-100.00,NW,310,4.0,11.0,95,0.00,,,0.61,55.000000,,2013-01-02 14:33:00,
2013-01-02 09:43:00,36.0,35.0,-100.00,NW,310,4.0,11.0,95,0.00,,,0.61,55.000000,,2013-01-02 14:43:00,
2013-01-02 09:53:00,36.0,35.0,-100.00,NW,310,4.0,11.0,95,0.00,,,0.61,55.000000,,2013-01-02 14:53:00,
2013-01-02 10:03:00,36.0,35.0,-100.00,NW,310,4.0,11.0,95,0.00,,,0.61,55.000000,,2013-01-02 15:03:00,
2013-01-02 10:33:00,37.0,34.0,-100.00,NNE,22,3.0,11.0,90,0.00,,,0.55,147.000000,,2013-01-02 15:33:00,
2013-01-02 10:43:00,37.0,34.0,-100.00,NNE,22,3.0,11.0,90,0.00,,,0.55,147.000000,,2013-01-02 15:43:00,
2013-01-02 10:53:00,37.0,34.0,-100.00,NNE,22,3.0,11.0,90,0.00,,,0.55,147.000000,,2013-01-02 15:53:00,
2013-01-02 11:03:00,37.0,34.0,-100.00,NNE,22,3.0,11.0,90,0.00,,,0.55,147.000000,,2013-01-02 16:03:00,
2013-01-02 11:33:00,38.0,34.0,-100.00,NW,320,4.0,6.0,87,0.00,,,0.50,155.000000,,2013-01-02 16:33:00,
2013-01-02 11:43:00,38.0,34.0,-100.00,NW,320,4.0,6.0,87,0.00,,,0.50,155.000000,,2013-01-02 16:43:00,
2013-01-02 11:54:00,38.0,34.0,-100.00,NW,320,4.0,6.0,87,0.00,,,0.50,155.000000,,2013-01-02 16:54:00,
2013-01-02 12:03:00,38.0,34.0,-100.00,NW,320,4.0,6.0,87,0.00,,,0.50,155.000000,,2013-01-02 17:03:00,
2013-01-02 12:33:00,37.0,34.0,-100.00,NNW,334,4.0,7.0,88,0.00,,,0.43,133.000000,,2013-01-02 17:33:00,
2013-01-02 12:43:00,37.0,34.0,-100.00,NNW,334,4.0,7.0,88,0.00,,,0.43,133.000000,,2013-01-02 17:43:00,
2013-01-02 12:54:00,37.0,34.0,-100.00,NNW,334,4.0,7.0,88,0.00,,,0.43,133.000000,,2013-01-02 17:54:00,
2013-01-02 13:03:00,37.0,34.0,-100.00,NNW,334,4.0,7.0,88,0.00,,,0.43,133.000000,,2013-01-02 18:03:00,
2013-01-02 13:33:00,38.0,35.0,-100.00,NNW,328,4.0,7.0,88,0.00,,,0.41,170.000000,,2013-01-02 18:33:00,
2013-01-02 13:43:00,38.0,35.0,-100.00,NNW,328,4.0,7.0,88,0.00,,,0.41,170.000000,,2013-01-02 18:43:00,
2013-01-02 13:53:00,38.0,35.0,-100.00,NNW,328,4.0,7.0,88,0.00,,,0.41,170.000000,,2013-01-02 18:53:00,
2013-01-02 14:03:00,38.0,35.0,-100.00,NNW,328,4.0,7.0,88,0.00,,,0.41,170.000000,,2013-01-02 19:03:00,
2013-01-02 14:33:00,38.0,35.0,-100.00,WNW,287,3.0,7.0,88,0.00,,,0.39,160.000000,,2013-01-02 19:33:00,
2013-01-02 14:43:00,38.0,35.0,-100.00,WNW,287,3.0,7.0,88,0.00,,,0.39,160.000000,,2013-01-02 19:43:00,
2013-01-02 14:53:00,38.0,35.0,-100.00,WNW,287,3.0,7.0,88,0.00,,,0.39,160.000000,,2013-01-02 19:53:00,
2013-01-02 15:03:00,38.0,35.0,-100.00,WNW,287,3.0,7.0,88,0.00,,,0.39,160.000000,,2013-01-02 20:03:00,
2013-01-02 15:33:00,38.0,35.0,-100.00,NW,316,3.0,5.0,89,0.00,,,0.38,137.000000,,2013-01-02 20:33:00,
2013-01-02 15:42:00,38.0,35.0,-100.00,NW,316,3.0,5.0,89,0.00,,,0.38,137.000000,,2013-01-02 20:42:00,
2013-01-02 15:53:00,38.0,35.0,-100.00,NW,316,3.0,5.0,89,0.00,,,0.38,137.000000,,2013-01-02 20:53:00,
2013-01-02 16:03:00,38.0,35.0,-100.00,NW,316,3.0,5.0,89,0.00,,,0.38,137.000000,,2013-01-02 21:03:00,
2013-01-02 16:33:00,36.0,34.0,-100.00,NW,324,3.0,7.0,92,0.00,,,0.32,60.000000,,2013-01-02 21:33:00,
2013-01-02 16:43:00,36.0,34.0,-100.00,NW,324,3.0,7.0,92,0.00,,,0.32,60.000000,,2013-01-02 21:43:00,
2013-01-02 16:53:00,36.0,34.0,-100.00,NW,324,3.0,7.0,92,0.00,,,0.32,60.000000,,2013-01-02 21:53:00,
2013-01-02 17:03:00,36.0,34.0,-100.00,NW,324,3.0,7.0,92,0.00,,,0.32,60.000000,,2013-01-02 22:03:00,
2013-01-02 17:32:00,36.0,34.0,-100.00,WNW,298,2.0,7.0,94,0.00,,,0.27,20.000000,,2013-01-02 22:32:00,
2013-01-02 17:43:00,36.0,34.0,-100.00,WNW,298,2.0,7.0,94,0.00,,,0.27,20.000000,,2013-01-02 22:43:00,
2013-01-02 17:53:00,36.0,34.0,-100.00,WNW,298,2.0,7.0,94,0.00,,,0.27,20.000000,,2013-01-02 22:53:00,
2013-01-02 18:03:00,36.0,34.0,-100.00,WNW,298,2.0,7.0,94,0.00,,,0.27,20.000000,,2013-01-02 23:03:00,
2013-01-02 18:33:00,35.0,33.0,-100.00,NW,310,2.0,5.0,94,0.00,,,0.22,1.000000,,2013-01-02 23:33:00,
2013-01-02 18:43:00,35.0,33.0,-100.00,NW,310,2.0,5.0,94,0.00,,,0.22,1.000000,,2013-01-02 23:43:00,
2013-01-02 18:53:00,35.0,33.0,-100.00,NW,310,2.0,5.0,94,0.00,,,0.22,1.000000,,2013-01-02 23:53:00,
2013-01-02 19:02:00,35.0,33.0,-100.00,NW,310,2.0,5.0,94,0.00,,,0.22,1.000000,,2013-01-03 00:02:00,
2013-01-02 19:38:00,35.0,34.0,-100.00,WNW,300,2.0,5.0,96,0.00,,,0.19,0.000000,,2013-01-03 00:38:00,
2013-01-02 19:53:00,35.0,34.0,-100.00,WNW,300,2.0,5.0,96,0.00,,,0.19,0.000000,,2013-01-03 00:53:00,
2013-01-02 20:02:00,35.0,34.0,-100.00,WNW,300,2.0,5.0,96,0.00,,,0.19,0.000000,,2013-01-03 01:02:00,
2013-01-02 20:33:00,35.0,34.0,-100.00,WSW,248,2.0,6.0,96,0.00,,,0.12,0.000000,,2013-01-03 01:33:00,
2013-01-02 20:43:00,35.0,34.0,-100.00,WSW,248,2.0,6.0,96,0.00,,,0.12,0.000000,,2013-01-03 01:43:00,
2013-01-02 20:53:00,35.0,34.0,-100.00,WSW,248,2.0,6.0,96,0.00,,,0.12,0.000000,,2013-01-03 01:53:00,
2013-01-02 21:02:00,35.0,34.0,-100.00,WSW,248,2.0,6.0,96,0.00,,,0.12,0.000000,,2013-01-03 02:02:00,
2013-01-02 21:33:00,35.0,34.0,-100.00,SE,124,1.0,3.0,98,0.00,,,0.09,0.000000,,2013-01-03 02:33:00,
2013-01-02 21:43:00,35.0,34.0,-100.00,SE,124,1.0,3.0,98,0.00,,,0.09,0.000000,,2013-01-03 02:43:00,
2013-01-02 21:53:00,35.0,34.0,-100.00,SE,124,1.0,3.0,98,0.00,,,0.09,0.000000,,2013-01-03 02:53:00,
2013-01-02 22:02:00,35.0,34.0,-100.00,SE,124,1.0,3.0,98,0.00,,,0.09,0.000000,,2013-01-03 03:02:00,
2013-01-02 22:47:00,35.0,34.0,-100.00,SSE,150,0.0,2.0,98,0.00,,,0.07,0.000000,,2013-01-03 03:47:00,
2013-01-02 22:53:00,35.0,34.0,-100.00,SSE,150,0.0,2.0,98,0.00,,,0.07,0.000000,,2013-01-03 03:53:00,
2013-01-02 23:03:00,35.0,34.0,-100.00,SSE,150,0.0,2.0,98,0.00,,,0.07,0.000000,,2013-01-03 04:03:00,
2013-01-02 23:33:00,35.0,34.0,-100.00,WNW,298,1.0,2.0,98,0.00,,,0.05,0.000000,,2013-01-03 04:33:00,
2013-01-02 23:43:00,35.0,34.0,-100.00,WNW,298,1.0,2.0,98,0.00,,,0.05,0.000000,,2013-01-03 04:43:00,
2013-01-02 23:53:00,35.0,34.0,-100.00,WNW,298,1.0,2.0,98,0.00,,,0.05,0.000000,,2013-01-03 04:53:00,